createdAt,value
2018-12-26T00:00:46.589Z,0
2018-12-26T00:01:47.353Z,0
2018-12-26T00:02:48.029Z,0
2018-12-26T00:03:48.739Z,0
2018-12-26T00:04:49.460Z,0
2018-12-26T00:05:50.229Z,0
2018-12-26T00:06:50.888Z,0
2018-12-26T00:07:51.611Z,0
2018-12-26T00:08:52.318Z,0
2018-12-26T00:09:53.171Z,0
2018-12-26T00:10:53.890Z,0
2018-12-26T00:11:54.597Z,0
2018-12-26T00:12:55.309Z,0
2018-12-26T00:13:56.015Z,0
2018-12-26T00:14:56.729Z,0
2018-12-26T00:15:57.456Z,0
2018-12-26T00:16:58.405Z,0
2018-12-26T00:17:59.128Z,0
2018-12-26T00:18:59.833Z,0
2018-12-26T00:20:00.665Z,0
2018-12-26T00:21:01.314Z,0
2018-12-26T00:22:02.026Z,0
2018-12-26T00:23:02.740Z,0
2018-12-26T00:24:03.484Z,0
2018-12-26T00:25:04.188Z,0
2018-12-26T00:26:04.878Z,0
2018-12-26T00:27:05.594Z,0
2018-12-26T00:28:06.302Z,0
2018-12-26T00:29:07.006Z,0
2018-12-26T00:30:07.721Z,0
2018-12-26T00:31:08.462Z,0
2018-12-26T00:32:09.177Z,0
2018-12-26T00:33:09.896Z,0
2018-12-26T00:34:10.602Z,0
2018-12-26T00:35:11.315Z,0
2018-12-26T00:36:12.022Z,0
2018-12-26T00:37:12.787Z,0
2018-12-26T00:38:13.494Z,0
2018-12-26T00:39:14.212Z,0
2018-12-26T00:40:15.160Z,0
2018-12-26T00:41:16.118Z,0
2018-12-26T00:42:16.834Z,0
2018-12-26T00:43:17.544Z,0
2018-12-26T00:44:18.257Z,0
2018-12-26T00:45:18.968Z,0
2018-12-26T00:46:19.670Z,0
2018-12-26T00:47:20.376Z,0
2018-12-26T00:48:21.093Z,0
2018-12-26T00:49:21.804Z,0
2018-12-26T00:50:22.504Z,0
2018-12-26T00:51:23.217Z,0
2018-12-26T00:52:23.928Z,0
2018-12-26T00:53:24.641Z,0
2018-12-26T00:54:25.357Z,0
2018-12-26T00:55:26.060Z,0
2018-12-26T00:56:26.761Z,0
2018-12-26T00:57:27.475Z,0
2018-12-26T00:58:28.172Z,0
2018-12-26T00:59:28.902Z,0
2018-12-26T01:00:29.616Z,0
2018-12-26T01:01:30.332Z,0
2018-12-26T01:02:31.046Z,0
2018-12-26T01:03:31.762Z,0
2018-12-26T01:04:32.473Z,0
2018-12-26T01:05:33.189Z,0
2018-12-26T01:06:33.902Z,0
2018-12-26T01:07:34.598Z,0
2018-12-26T01:08:35.307Z,0
2018-12-26T01:09:36.015Z,0
2018-12-26T01:10:36.882Z,0
2018-12-26T01:11:37.580Z,0
2018-12-26T01:12:38.305Z,0
2018-12-26T01:13:39.006Z,0
2018-12-26T01:14:39.720Z,0
2018-12-26T01:15:40.427Z,0
2018-12-26T01:16:41.144Z,0
2018-12-26T01:17:41.860Z,0
2018-12-26T01:18:42.569Z,0
2018-12-26T01:19:43.276Z,0
2018-12-26T01:20:43.983Z,0
2018-12-26T01:21:44.680Z,0
2018-12-26T01:22:45.391Z,0
2018-12-26T01:23:46.347Z,0
2018-12-26T01:24:47.063Z,0
2018-12-26T01:25:47.788Z,0
2018-12-26T01:26:48.495Z,0
2018-12-26T01:27:49.199Z,0
2018-12-26T01:28:50.156Z,0
2018-12-26T01:29:50.872Z,0
2018-12-26T01:30:51.585Z,0
2018-12-26T01:31:52.295Z,0
2018-12-26T01:32:53.011Z,0
2018-12-26T01:33:53.977Z,0
2018-12-26T01:34:54.691Z,0
2018-12-26T01:35:56.138Z,0
2018-12-26T01:36:56.121Z,0
2018-12-26T01:37:56.843Z,0
2018-12-26T01:38:57.555Z,0
2018-12-26T01:39:58.269Z,0
2018-12-26T01:40:58.976Z,0
2018-12-26T01:41:59.693Z,0
2018-12-26T01:43:00.458Z,0
2018-12-26T01:44:01.166Z,0
2018-12-26T01:45:01.883Z,0
2018-12-26T01:46:02.594Z,0
2018-12-26T01:47:03.335Z,0
2018-12-26T01:48:04.147Z,0
2018-12-26T01:49:04.865Z,0
2018-12-26T01:50:05.574Z,0
2018-12-26T01:51:06.274Z,0
2018-12-26T01:52:06.985Z,0
2018-12-26T01:53:07.791Z,0
2018-12-26T01:54:08.502Z,0
2018-12-26T01:55:09.206Z,0
2018-12-26T01:56:09.915Z,0
2018-12-26T01:57:10.622Z,0
2018-12-26T01:58:11.342Z,0
2018-12-26T01:59:12.068Z,0
2018-12-26T02:00:12.788Z,0
2018-12-26T02:01:13.492Z,0
2018-12-26T02:02:14.201Z,0
2018-12-26T02:03:15.221Z,0
2018-12-26T02:04:15.935Z,0
2018-12-26T02:05:16.641Z,0
2018-12-26T02:06:17.348Z,0
2018-12-26T02:07:18.054Z,0
2018-12-26T02:08:18.769Z,0
2018-12-26T02:09:19.481Z,0
2018-12-26T02:10:20.195Z,0
2018-12-26T02:11:20.904Z,0
2018-12-26T02:12:21.618Z,0
2018-12-26T02:13:22.326Z,0
2018-12-26T02:14:23.038Z,0
2018-12-26T02:15:23.749Z,0
2018-12-26T02:16:24.470Z,0
2018-12-26T02:17:25.188Z,0
2018-12-26T02:18:25.907Z,0
2018-12-26T02:19:26.617Z,0
2018-12-26T02:20:27.333Z,0
2018-12-26T02:21:28.118Z,0
2018-12-26T02:22:28.813Z,0
2018-12-26T02:23:29.508Z,0
2018-12-26T02:24:30.218Z,0
2018-12-26T02:25:30.927Z,0
2018-12-26T02:26:36.346Z,0
2018-12-26T02:27:32.500Z,0
2018-12-26T02:28:33.205Z,0
2018-12-26T02:29:33.928Z,0
2018-12-26T02:30:34.650Z,0
2018-12-26T02:31:35.358Z,0
2018-12-26T02:32:36.077Z,0
2018-12-26T02:33:36.795Z,0
2018-12-26T02:34:37.495Z,0
2018-12-26T02:35:38.200Z,0
2018-12-26T02:36:38.913Z,0
2018-12-26T02:37:39.639Z,0
2018-12-26T02:38:40.354Z,0
2018-12-26T02:39:41.070Z,0
2018-12-26T02:40:41.784Z,0
2018-12-26T02:41:42.498Z,0
2018-12-26T02:42:43.214Z,0
2018-12-26T02:43:43.920Z,0
2018-12-26T02:44:44.628Z,0
2018-12-26T02:45:45.351Z,0
2018-12-26T02:46:46.057Z,0
2018-12-26T02:47:46.777Z,0
2018-12-26T02:48:47.496Z,0
2018-12-26T02:49:48.220Z,0
2018-12-26T02:50:48.917Z,0
2018-12-26T02:51:49.638Z,0
2018-12-26T02:52:50.363Z,0
2018-12-26T02:53:51.087Z,0
2018-12-26T02:54:52.067Z,0
2018-12-26T02:55:52.913Z,0
2018-12-26T02:56:53.631Z,0
2018-12-26T02:57:54.349Z,0
2018-12-26T02:58:55.067Z,0
2018-12-26T02:59:55.777Z,0
2018-12-26T03:00:56.596Z,0
2018-12-26T03:01:57.302Z,0
2018-12-26T03:02:58.014Z,0
2018-12-26T03:03:58.734Z,0
2018-12-26T03:04:59.449Z,0
2018-12-26T03:06:00.157Z,0
2018-12-26T03:07:00.876Z,0
2018-12-26T03:08:01.581Z,0
2018-12-26T03:09:02.307Z,0
2018-12-26T03:10:03.008Z,0
2018-12-26T03:11:03.721Z,0
2018-12-26T03:12:04.448Z,0
2018-12-26T03:13:05.161Z,0
2018-12-26T03:14:05.876Z,0
2018-12-26T03:15:06.597Z,0
2018-12-26T03:16:07.320Z,0
2018-12-26T03:17:08.038Z,0
2018-12-26T03:18:08.753Z,0
2018-12-26T03:19:09.474Z,0
2018-12-26T03:20:10.188Z,0
2018-12-26T03:21:10.893Z,0
2018-12-26T03:22:11.604Z,0
2018-12-26T03:23:12.318Z,0
2018-12-26T03:24:13.027Z,0
2018-12-26T03:25:13.727Z,0
2018-12-26T03:26:14.443Z,0
2018-12-26T03:27:15.154Z,0
2018-12-26T03:28:15.871Z,0
2018-12-26T03:29:16.599Z,0
2018-12-26T03:30:17.310Z,0
2018-12-26T03:31:18.020Z,0
2018-12-26T03:32:18.735Z,0
2018-12-26T03:33:19.458Z,0
2018-12-26T03:34:20.229Z,0
2018-12-26T03:35:20.942Z,0
2018-12-26T03:36:21.654Z,0
2018-12-26T03:37:22.359Z,0
2018-12-26T03:38:23.073Z,0
2018-12-26T03:39:23.848Z,0
2018-12-26T03:40:24.552Z,0
2018-12-26T03:41:25.270Z,0
2018-12-26T03:42:25.984Z,0
2018-12-26T03:43:26.692Z,0
2018-12-26T03:44:27.402Z,0
2018-12-26T03:45:28.163Z,0
2018-12-26T03:46:28.876Z,0
2018-12-26T03:47:29.582Z,0
2018-12-26T03:48:30.293Z,0
2018-12-26T03:49:31.005Z,0
2018-12-26T03:50:31.714Z,0
2018-12-26T03:51:32.419Z,0
2018-12-26T03:52:33.138Z,0
2018-12-26T03:53:33.846Z,0
2018-12-26T03:54:34.559Z,0
2018-12-26T03:55:35.323Z,0
2018-12-26T03:56:36.035Z,0
2018-12-26T03:57:36.751Z,0
2018-12-26T03:58:37.462Z,0
2018-12-26T03:59:38.170Z,0
2018-12-26T04:00:38.901Z,0
2018-12-26T04:01:39.610Z,0
2018-12-26T04:02:40.387Z,0
2018-12-26T04:03:41.092Z,0
2018-12-26T04:04:41.804Z,0
2018-12-26T04:05:42.515Z,0
2018-12-26T04:06:43.221Z,0
2018-12-26T04:07:43.999Z,0
2018-12-26T04:08:44.708Z,0
2018-12-26T04:09:45.426Z,0
2018-12-26T04:10:46.395Z,0
2018-12-26T04:11:47.103Z,0
2018-12-26T04:12:47.813Z,0
2018-12-26T04:13:48.525Z,0
2018-12-26T04:14:49.240Z,0
2018-12-26T04:15:49.949Z,0
2018-12-26T04:16:50.662Z,0
2018-12-26T04:17:51.368Z,0
2018-12-26T04:18:52.080Z,0
2018-12-26T04:19:52.792Z,0
2018-12-26T04:20:53.501Z,0
2018-12-26T04:21:54.207Z,0
2018-12-26T04:22:55.179Z,0
2018-12-26T04:23:55.884Z,0
2018-12-26T04:24:56.851Z,0
2018-12-26T04:25:57.570Z,0
2018-12-26T04:26:58.283Z,0
2018-12-26T04:27:58.996Z,0
2018-12-26T04:28:59.700Z,0
2018-12-26T04:30:00.423Z,0
2018-12-26T04:31:01.131Z,0
2018-12-26T04:32:01.834Z,0
2018-12-26T04:33:02.555Z,0
2018-12-26T04:34:03.264Z,0
2018-12-26T04:35:03.980Z,0
2018-12-26T04:36:04.694Z,0
2018-12-26T04:37:05.409Z,0
2018-12-26T04:38:06.125Z,0
2018-12-26T04:39:06.841Z,0
2018-12-26T04:40:07.560Z,0
2018-12-26T04:41:08.275Z,0
2018-12-26T04:42:08.979Z,0
2018-12-26T04:43:09.688Z,0
2018-12-26T04:44:10.400Z,0
2018-12-26T04:45:11.109Z,0
2018-12-26T04:46:11.834Z,0
2018-12-26T04:47:12.539Z,0
2018-12-26T04:48:13.247Z,0
2018-12-26T04:49:13.967Z,0
2018-12-26T04:50:14.676Z,0
2018-12-26T04:51:15.397Z,0
2018-12-26T04:52:16.105Z,0
2018-12-26T04:53:16.828Z,0
2018-12-26T04:54:17.542Z,0
2018-12-26T04:55:18.258Z,0
2018-12-26T04:56:18.971Z,0
2018-12-26T04:57:24.639Z,0
2018-12-26T04:58:20.399Z,0
2018-12-26T04:59:21.115Z,0
2018-12-26T05:00:21.833Z,0
2018-12-26T05:01:22.595Z,0
2018-12-26T05:02:23.551Z,0
2018-12-26T05:03:24.266Z,0
2018-12-26T05:04:24.976Z,0
2018-12-26T05:05:25.681Z,0
2018-12-26T05:06:26.445Z,0
2018-12-26T05:07:27.148Z,0
2018-12-26T05:08:27.869Z,0
2018-12-26T05:09:28.581Z,0
2018-12-26T05:10:29.291Z,0
2018-12-26T05:11:30.005Z,0
2018-12-26T05:12:30.708Z,0
2018-12-26T05:13:31.443Z,0
2018-12-26T05:14:32.146Z,0
2018-12-26T05:15:32.866Z,0
2018-12-26T05:16:33.578Z,0
2018-12-26T05:17:34.394Z,0
2018-12-26T05:18:35.121Z,0
2018-12-26T05:19:35.832Z,0
2018-12-26T05:20:36.549Z,0
2018-12-26T05:21:37.251Z,0
2018-12-26T05:22:38.006Z,0
2018-12-26T05:23:38.737Z,0
2018-12-26T05:24:39.453Z,0
2018-12-26T05:25:40.169Z,0
2018-12-26T05:26:40.886Z,0
2018-12-26T05:27:41.592Z,0
2018-12-26T05:28:42.331Z,0
2018-12-26T05:29:43.028Z,0
2018-12-26T05:30:43.741Z,0
2018-12-26T05:31:44.452Z,0
2018-12-26T05:32:45.167Z,0
2018-12-26T05:33:45.881Z,0
2018-12-26T05:34:46.588Z,0
2018-12-26T05:35:47.302Z,0
2018-12-26T05:36:48.021Z,0
2018-12-26T05:37:48.738Z,0
2018-12-26T05:38:49.443Z,0
2018-12-26T05:39:50.400Z,0
2018-12-26T05:40:51.105Z,0
2018-12-26T05:41:51.832Z,0
2018-12-26T05:42:52.555Z,0
2018-12-26T05:43:53.261Z,0
2018-12-26T05:44:53.966Z,0
2018-12-26T05:45:54.694Z,0
2018-12-26T05:46:55.393Z,0
2018-12-26T05:47:56.107Z,0
2018-12-26T05:48:56.835Z,0
2018-12-26T05:49:57.560Z,0
2018-12-26T05:50:58.279Z,0
2018-12-26T05:51:58.987Z,0
2018-12-26T05:52:59.702Z,0
2018-12-26T05:54:00.404Z,0
2018-12-26T05:55:01.113Z,0
2018-12-26T05:56:01.831Z,0
2018-12-26T05:57:02.549Z,0
2018-12-26T05:58:03.260Z,0
2018-12-26T05:59:03.969Z,0
2018-12-26T06:00:04.793Z,0
2018-12-26T06:01:05.494Z,0
2018-12-26T06:02:06.212Z,0
2018-12-26T06:03:06.921Z,0
2018-12-26T06:04:07.635Z,0
2018-12-26T06:05:08.344Z,0
2018-12-26T06:06:09.057Z,0
2018-12-26T06:07:09.771Z,0
2018-12-26T06:08:10.487Z,0
2018-12-26T06:09:11.198Z,0
2018-12-26T06:10:11.905Z,0
2018-12-26T06:11:12.620Z,0
2018-12-26T06:12:13.349Z,0
2018-12-26T06:13:14.047Z,0
2018-12-26T06:14:14.779Z,0
2018-12-26T06:15:15.482Z,0
2018-12-26T06:16:16.186Z,0
2018-12-26T06:17:16.905Z,0
2018-12-26T06:18:17.632Z,0
2018-12-26T06:19:18.353Z,0
2018-12-26T06:20:19.062Z,0
2018-12-26T06:21:19.779Z,0
2018-12-26T06:22:20.489Z,0
2018-12-26T06:23:21.216Z,0
2018-12-26T06:24:21.935Z,0
2018-12-26T06:25:22.648Z,0
2018-12-26T06:26:23.629Z,0
2018-12-26T06:27:24.490Z,0
2018-12-26T06:28:25.203Z,0
2018-12-26T06:29:26.174Z,0
2018-12-26T06:30:26.882Z,0
2018-12-26T06:31:27.600Z,0
2018-12-26T06:32:28.325Z,0
2018-12-26T06:33:29.021Z,0
2018-12-26T06:34:29.738Z,0
2018-12-26T06:35:30.450Z,0
2018-12-26T06:36:31.155Z,0
2018-12-26T06:37:31.874Z,0
2018-12-26T06:38:32.591Z,0
2018-12-26T06:39:33.313Z,0
2018-12-26T06:40:34.026Z,0
2018-12-26T06:41:34.734Z,0
2018-12-26T06:42:35.446Z,0
2018-12-26T06:43:36.157Z,0
2018-12-26T06:44:36.961Z,0
2018-12-26T06:45:37.680Z,0
2018-12-26T06:46:38.417Z,0
2018-12-26T06:47:39.125Z,0
2018-12-26T06:48:39.843Z,0
2018-12-26T06:49:40.596Z,0
2018-12-26T06:50:41.318Z,0
2018-12-26T06:51:42.032Z,0
2018-12-26T06:52:42.734Z,0
2018-12-26T06:53:43.461Z,0
2018-12-26T06:54:44.244Z,0
2018-12-26T06:55:44.954Z,0
2018-12-26T06:56:45.663Z,0
2018-12-26T06:57:46.619Z,0
2018-12-26T06:58:47.584Z,0
2018-12-26T06:59:48.286Z,0
2018-12-26T07:00:49.092Z,0
2018-12-26T07:01:49.814Z,0
2018-12-26T07:02:50.518Z,0
2018-12-26T07:03:51.225Z,0
2018-12-26T07:04:51.945Z,0
2018-12-26T07:05:52.648Z,0
2018-12-26T07:06:53.365Z,0
2018-12-26T07:07:54.076Z,0
2018-12-26T07:08:54.784Z,0
2018-12-26T07:09:55.485Z,0
2018-12-26T07:10:56.245Z,0
2018-12-26T07:11:56.971Z,0
2018-12-26T07:12:57.685Z,0
2018-12-26T07:13:58.401Z,0
2018-12-26T07:14:59.106Z,0
2018-12-26T07:15:59.826Z,0
2018-12-26T07:17:00.538Z,0
2018-12-26T07:18:01.252Z,0
2018-12-26T07:19:01.975Z,0
2018-12-26T07:20:02.685Z,0
2018-12-26T07:21:03.408Z,0
2018-12-26T07:22:04.123Z,0
2018-12-26T07:23:04.835Z,0
2018-12-26T07:24:05.541Z,0
2018-12-26T07:25:06.255Z,0
2018-12-26T07:26:06.969Z,0
2018-12-26T07:27:07.721Z,0
2018-12-26T07:28:09.196Z,0
2018-12-26T07:29:09.161Z,0
2018-12-26T07:30:09.895Z,0
2018-12-26T07:31:10.605Z,0
2018-12-26T07:32:11.374Z,0
2018-12-26T07:33:12.087Z,0
2018-12-26T07:34:12.810Z,0
2018-12-26T07:35:13.527Z,0
2018-12-26T07:36:14.239Z,5
2018-12-26T07:37:14.959Z,5
2018-12-26T07:38:15.676Z,5
2018-12-26T07:39:16.399Z,5
2018-12-26T07:40:17.383Z,5
2018-12-26T07:41:18.077Z,5
2018-12-26T07:42:18.791Z,5
2018-12-26T07:43:19.506Z,5
2018-12-26T07:44:20.215Z,5
2018-12-26T07:45:20.935Z,5
2018-12-26T07:46:21.652Z,5
2018-12-26T07:47:22.369Z,5
2018-12-26T07:48:23.081Z,5
2018-12-26T07:49:23.856Z,5
2018-12-26T07:50:24.565Z,5
2018-12-26T07:51:25.276Z,5
2018-12-26T07:52:25.990Z,5
2018-12-26T07:53:26.701Z,11
2018-12-26T07:54:27.417Z,11
2018-12-26T07:55:28.141Z,11
2018-12-26T07:56:28.870Z,11
2018-12-26T07:57:29.580Z,11
2018-12-26T07:58:30.300Z,11
2018-12-26T07:59:37.568Z,11
2018-12-26T08:00:31.973Z,11
2018-12-26T08:01:32.836Z,16
2018-12-26T08:02:33.501Z,16
2018-12-26T08:03:34.215Z,16
2018-12-26T08:04:34.931Z,16
2018-12-26T08:05:35.644Z,16
2018-12-26T08:06:36.473Z,16
2018-12-26T08:07:37.184Z,16
2018-12-26T08:08:37.904Z,16
2018-12-26T08:09:38.870Z,22
2018-12-26T08:10:39.578Z,22
2018-12-26T08:11:40.308Z,22
2018-12-26T08:12:41.009Z,22
2018-12-26T08:13:41.726Z,22
2018-12-26T08:14:42.447Z,28
2018-12-26T08:15:43.409Z,28
2018-12-26T08:16:44.130Z,22
2018-12-26T08:17:44.845Z,28
2018-12-26T08:18:45.558Z,28
2018-12-26T08:19:46.265Z,28
2018-12-26T08:20:46.992Z,28
2018-12-26T08:21:47.954Z,28
2018-12-26T08:22:48.664Z,28
2018-12-26T08:23:49.393Z,28
2018-12-26T08:24:50.096Z,28
2018-12-26T08:25:50.807Z,28
2018-12-26T08:26:53.593Z,28
2018-12-26T08:27:52.214Z,33
2018-12-26T08:28:52.945Z,33
2018-12-26T08:29:53.663Z,33
2018-12-26T08:30:54.386Z,33
2018-12-26T08:31:55.093Z,33
2018-12-26T08:32:55.814Z,33
2018-12-26T08:33:56.532Z,28
2018-12-26T08:34:57.256Z,28
2018-12-26T08:35:57.967Z,28
2018-12-26T08:36:58.693Z,28
2018-12-26T08:37:59.417Z,28
2018-12-26T08:39:00.119Z,28
2018-12-26T08:40:00.832Z,28
2018-12-26T08:41:01.553Z,33
2018-12-26T08:42:02.261Z,33
2018-12-26T08:43:02.976Z,33
2018-12-26T08:44:03.683Z,33
2018-12-26T08:45:04.510Z,39
2018-12-26T08:46:05.229Z,33
2018-12-26T08:47:05.947Z,39
2018-12-26T08:48:06.665Z,39
2018-12-26T08:49:07.376Z,39
2018-12-26T08:50:08.091Z,39
2018-12-26T08:51:08.809Z,45
2018-12-26T08:52:09.531Z,45
2018-12-26T08:53:10.259Z,45
2018-12-26T08:54:10.980Z,39
2018-12-26T08:55:11.696Z,39
2018-12-26T08:56:12.413Z,45
2018-12-26T08:57:13.132Z,45
2018-12-26T08:58:13.854Z,50
2018-12-26T08:59:14.563Z,45
2018-12-26T09:00:15.277Z,45
2018-12-26T09:01:16.087Z,45
2018-12-26T09:02:16.812Z,45
2018-12-26T09:03:17.542Z,50
2018-12-26T09:04:18.253Z,50
2018-12-26T09:05:18.969Z,50
2018-12-26T09:06:19.788Z,50
2018-12-26T09:07:20.503Z,50
2018-12-26T09:08:21.228Z,56
2018-12-26T09:09:21.958Z,56
2018-12-26T09:10:22.681Z,56
2018-12-26T09:11:23.437Z,50
2018-12-26T09:12:24.151Z,56
2018-12-26T09:13:24.875Z,50
2018-12-26T09:14:25.612Z,56
2018-12-26T09:15:26.305Z,56
2018-12-26T09:16:27.015Z,56
2018-12-26T09:17:27.898Z,56
2018-12-26T09:18:28.618Z,61
2018-12-26T09:19:29.328Z,56
2018-12-26T09:20:30.043Z,56
2018-12-26T09:21:30.770Z,61
2018-12-26T09:22:31.487Z,67
2018-12-26T09:23:32.342Z,56
2018-12-26T09:24:33.062Z,56
2018-12-26T09:25:33.774Z,61
2018-12-26T09:26:34.480Z,67
2018-12-26T09:27:35.201Z,73
2018-12-26T09:28:43.607Z,73
2018-12-26T09:29:36.643Z,67
2018-12-26T09:30:37.479Z,73
2018-12-26T09:31:38.096Z,78
2018-12-26T09:32:38.827Z,78
2018-12-26T09:33:39.532Z,67
2018-12-26T09:34:40.340Z,78
2018-12-26T09:35:41.049Z,73
2018-12-26T09:36:41.759Z,67
2018-12-26T09:37:42.475Z,73
2018-12-26T09:38:43.239Z,67
2018-12-26T09:39:43.950Z,67
2018-12-26T09:40:44.666Z,73
2018-12-26T09:41:45.395Z,84
2018-12-26T09:42:46.105Z,78
2018-12-26T09:43:46.843Z,78
2018-12-26T09:44:54.370Z,73
2018-12-26T09:45:48.270Z,67
2018-12-26T09:46:48.978Z,73
2018-12-26T09:47:49.698Z,73
2018-12-26T09:48:50.411Z,73
2018-12-26T09:49:51.140Z,67
2018-12-26T09:50:52.001Z,67
2018-12-26T09:51:52.716Z,73
2018-12-26T09:52:53.682Z,73
2018-12-26T09:53:54.433Z,67
2018-12-26T09:54:55.156Z,78
2018-12-26T09:55:55.865Z,73
2018-12-26T09:56:56.725Z,84
2018-12-26T09:57:57.448Z,84
2018-12-26T09:58:58.163Z,84
2018-12-26T09:59:58.881Z,84
2018-12-26T10:00:59.608Z,84
2018-12-26T10:02:00.453Z,84
2018-12-26T10:03:01.171Z,84
2018-12-26T10:04:01.886Z,84
2018-12-26T10:05:02.606Z,84
2018-12-26T10:06:03.326Z,78
2018-12-26T10:07:04.038Z,78
2018-12-26T10:08:04.752Z,78
2018-12-26T10:09:05.463Z,67
2018-12-26T10:10:06.175Z,73
2018-12-26T10:11:06.950Z,73
2018-12-26T10:12:07.607Z,73
2018-12-26T10:13:08.324Z,73
2018-12-26T10:14:09.028Z,73
2018-12-26T10:15:09.996Z,73
2018-12-26T10:16:10.719Z,73
2018-12-26T10:17:11.434Z,67
2018-12-26T10:18:12.156Z,67
2018-12-26T10:19:12.881Z,78
2018-12-26T10:20:13.597Z,78
2018-12-26T10:21:14.313Z,73
2018-12-26T10:22:15.041Z,67
2018-12-26T10:23:15.768Z,67
2018-12-26T10:24:16.533Z,67
2018-12-26T10:25:17.255Z,67
2018-12-26T10:26:17.979Z,67
2018-12-26T10:27:18.689Z,67
2018-12-26T10:28:19.414Z,67
2018-12-26T10:29:20.179Z,73
2018-12-26T10:30:20.891Z,67
2018-12-26T10:31:21.602Z,67
2018-12-26T10:32:22.315Z,73
2018-12-26T10:33:23.038Z,73
2018-12-26T10:34:23.909Z,73
2018-12-26T10:35:24.635Z,73
2018-12-26T10:36:25.373Z,73
2018-12-26T10:37:26.084Z,67
2018-12-26T10:38:26.803Z,67
2018-12-26T10:39:27.524Z,73
2018-12-26T10:40:28.239Z,78
2018-12-26T10:41:29.004Z,78
2018-12-26T10:42:29.719Z,78
2018-12-26T10:43:30.440Z,78
2018-12-26T10:44:31.159Z,73
2018-12-26T10:45:31.889Z,73
2018-12-26T10:46:32.608Z,73
2018-12-26T10:47:33.321Z,73
2018-12-26T10:48:34.058Z,78
2018-12-26T10:49:34.769Z,84
2018-12-26T10:50:35.489Z,84
2018-12-26T10:51:36.361Z,84
2018-12-26T10:52:37.073Z,84
2018-12-26T10:53:37.786Z,84
2018-12-26T10:54:38.511Z,84
2018-12-26T10:55:39.239Z,84
2018-12-26T10:56:39.971Z,78
2018-12-26T10:57:40.687Z,73
2018-12-26T10:58:41.401Z,78
2018-12-26T10:59:42.121Z,78
2018-12-26T11:00:42.843Z,78
2018-12-26T11:01:43.559Z,84
2018-12-26T11:02:44.272Z,84
2018-12-26T11:03:44.982Z,90
2018-12-26T11:04:45.731Z,84
2018-12-26T11:05:46.453Z,84
2018-12-26T11:06:47.188Z,78
2018-12-26T11:07:47.901Z,78
2018-12-26T11:08:48.621Z,78
2018-12-26T11:09:49.342Z,78
2018-12-26T11:10:50.050Z,78
2018-12-26T11:11:50.768Z,84
2018-12-26T11:12:51.487Z,78
2018-12-26T11:13:52.230Z,78
2018-12-26T11:14:52.946Z,73
2018-12-26T11:15:53.659Z,73
2018-12-26T11:16:54.430Z,78
2018-12-26T11:17:55.142Z,73
2018-12-26T11:18:55.885Z,73
2018-12-26T11:19:56.849Z,73
2018-12-26T11:20:57.576Z,73
2018-12-26T11:21:59.925Z,78
2018-12-26T11:22:59.009Z,84
2018-12-26T11:23:59.769Z,90
2018-12-26T11:25:00.491Z,90
2018-12-26T11:26:01.201Z,95
2018-12-26T11:27:01.925Z,90
2018-12-26T11:28:02.644Z,84
2018-12-26T11:29:03.507Z,90
2018-12-26T11:30:04.229Z,84
2018-12-26T11:31:04.957Z,84
2018-12-26T11:32:05.666Z,84
2018-12-26T11:33:06.402Z,90
2018-12-26T11:34:07.121Z,90
2018-12-26T11:35:07.845Z,90
2018-12-26T11:36:08.563Z,90
2018-12-26T11:37:09.271Z,90
2018-12-26T11:38:09.982Z,95
2018-12-26T11:39:10.962Z,95
2018-12-26T11:40:11.676Z,90
2018-12-26T11:41:12.545Z,84
2018-12-26T11:42:13.256Z,84
2018-12-26T11:43:13.993Z,90
2018-12-26T11:44:14.723Z,84
2018-12-26T11:45:15.442Z,90
2018-12-26T11:46:16.163Z,90
2018-12-26T11:47:16.879Z,78
2018-12-26T11:48:17.591Z,84
2018-12-26T11:49:18.307Z,78
2018-12-26T11:50:19.024Z,90
2018-12-26T11:51:19.738Z,84
2018-12-26T11:52:20.515Z,78
2018-12-26T11:53:21.232Z,73
2018-12-26T11:54:22.210Z,78
2018-12-26T11:55:22.922Z,78
2018-12-26T11:56:23.646Z,73
2018-12-26T11:57:24.354Z,73
2018-12-26T11:58:25.066Z,73
2018-12-26T11:59:27.316Z,78
2018-12-26T12:00:26.494Z,78
2018-12-26T12:01:27.215Z,78
2018-12-26T12:02:27.931Z,73
2018-12-26T12:03:28.652Z,73
2018-12-26T12:04:29.401Z,73
2018-12-26T12:05:30.138Z,78
2018-12-26T12:06:30.855Z,78
2018-12-26T12:07:31.571Z,78
2018-12-26T12:08:32.294Z,73
2018-12-26T12:09:34.376Z,73
2018-12-26T12:10:35.325Z,73
2018-12-26T12:11:36.045Z,73
2018-12-26T12:12:36.759Z,73
2018-12-26T12:13:37.734Z,78
2018-12-26T12:14:38.448Z,73
2018-12-26T12:15:39.184Z,73
2018-12-26T12:16:39.918Z,73
2018-12-26T12:17:40.637Z,73
2018-12-26T12:18:41.603Z,67
2018-12-26T12:19:42.349Z,73
2018-12-26T12:20:43.050Z,67
2018-12-26T12:21:43.767Z,67
2018-12-26T12:22:44.531Z,73
2018-12-26T12:23:45.249Z,78
2018-12-26T12:24:45.975Z,73
2018-12-26T12:25:46.695Z,67
2018-12-26T12:26:47.417Z,67
2018-12-26T12:27:48.661Z,73
2018-12-26T12:28:49.724Z,67
2018-12-26T12:29:50.447Z,67
2018-12-26T12:30:51.156Z,61
2018-12-26T12:31:51.875Z,67
2018-12-26T12:32:52.644Z,67
2018-12-26T12:33:53.358Z,67
2018-12-26T12:34:54.088Z,73
2018-12-26T12:35:54.808Z,67
2018-12-26T12:36:55.526Z,67
2018-12-26T12:37:56.498Z,67
2018-12-26T12:38:57.208Z,61
2018-12-26T12:39:57.932Z,61
2018-12-26T12:40:58.655Z,61
2018-12-26T12:41:59.381Z,61
2018-12-26T12:43:00.112Z,61
2018-12-26T12:44:00.816Z,56
2018-12-26T12:45:01.535Z,56
2018-12-26T12:46:02.253Z,56
2018-12-26T12:47:02.971Z,56
2018-12-26T12:48:03.679Z,56
2018-12-26T12:49:04.396Z,61
2018-12-26T12:50:05.116Z,61
2018-12-26T12:51:05.836Z,61
2018-12-26T12:52:06.550Z,61
2018-12-26T12:53:07.356Z,56
2018-12-26T12:54:08.325Z,61
2018-12-26T12:55:09.034Z,61
2018-12-26T12:56:12.209Z,61
2018-12-26T12:57:10.476Z,61
2018-12-26T12:58:11.193Z,61
2018-12-26T12:59:11.996Z,61
2018-12-26T13:00:12.645Z,61
2018-12-26T13:01:13.346Z,56
2018-12-26T13:02:14.093Z,61
2018-12-26T13:03:14.806Z,61
2018-12-26T13:04:15.532Z,61
2018-12-26T13:05:16.239Z,61
2018-12-26T13:06:17.217Z,61
2018-12-26T13:07:17.926Z,61
2018-12-26T13:08:18.695Z,61
2018-12-26T13:09:19.415Z,56
2018-12-26T13:10:20.136Z,56
2018-12-26T13:11:20.855Z,56
2018-12-26T13:12:21.573Z,56
2018-12-26T13:13:22.296Z,61
2018-12-26T13:14:23.024Z,61
2018-12-26T13:15:23.789Z,56
2018-12-26T13:16:24.506Z,56
2018-12-26T13:17:25.223Z,56
2018-12-26T13:18:26.045Z,56
2018-12-26T13:19:26.754Z,56
2018-12-26T13:20:27.482Z,56
2018-12-26T13:21:28.250Z,50
2018-12-26T13:22:28.976Z,50
2018-12-26T13:23:29.762Z,56
2018-12-26T13:24:30.482Z,50
2018-12-26T13:25:31.193Z,56
2018-12-26T13:26:31.904Z,56
2018-12-26T13:27:32.619Z,56
2018-12-26T13:28:33.355Z,50
2018-12-26T13:29:34.067Z,50
2018-12-26T13:30:34.780Z,50
2018-12-26T13:31:35.634Z,50
2018-12-26T13:32:36.211Z,50
2018-12-26T13:33:36.932Z,50
2018-12-26T13:34:37.668Z,50
2018-12-26T13:35:39.170Z,50
2018-12-26T13:36:40.069Z,50
2018-12-26T13:37:40.793Z,50
2018-12-26T13:38:41.501Z,50
2018-12-26T13:39:42.223Z,45
2018-12-26T13:40:42.943Z,45
2018-12-26T13:41:43.671Z,45
2018-12-26T13:42:44.652Z,45
2018-12-26T13:43:45.362Z,45
2018-12-26T13:44:46.071Z,45
2018-12-26T13:45:46.869Z,45
2018-12-26T13:46:47.591Z,50
2018-12-26T13:47:48.439Z,50
2018-12-26T13:48:49.939Z,50
2018-12-26T13:49:50.831Z,50
2018-12-26T13:50:51.806Z,50
2018-12-26T13:51:52.512Z,50
2018-12-26T13:52:53.271Z,50
2018-12-26T13:53:53.981Z,50
2018-12-26T13:54:54.705Z,50
2018-12-26T13:55:55.436Z,45
2018-12-26T13:56:56.147Z,45
2018-12-26T13:57:57.014Z,45
2018-12-26T13:58:57.732Z,45
2018-12-26T14:00:02.363Z,45
2018-12-26T14:00:59.205Z,45
2018-12-26T14:01:59.926Z,39
2018-12-26T14:03:00.631Z,39
2018-12-26T14:04:01.351Z,39
2018-12-26T14:05:02.071Z,39
2018-12-26T14:06:02.773Z,39
2018-12-26T14:07:03.493Z,39
2018-12-26T14:08:04.203Z,39
2018-12-26T14:09:04.925Z,39
2018-12-26T14:10:05.642Z,39
2018-12-26T14:11:06.359Z,39
2018-12-26T14:12:07.080Z,39
2018-12-26T14:13:07.797Z,39
2018-12-26T14:14:08.522Z,33
2018-12-26T14:15:09.338Z,33
2018-12-26T14:16:10.059Z,33
2018-12-26T14:17:10.771Z,33
2018-12-26T14:18:11.491Z,33
2018-12-26T14:19:13.075Z,28
2018-12-26T14:20:12.919Z,28
2018-12-26T14:21:13.620Z,28
2018-12-26T14:22:14.353Z,28
2018-12-26T14:23:15.067Z,28
2018-12-26T14:24:15.783Z,28
2018-12-26T14:25:16.496Z,22
2018-12-26T14:26:17.203Z,22
2018-12-26T14:27:17.913Z,22
2018-12-26T14:28:18.645Z,22
2018-12-26T14:29:19.351Z,22
2018-12-26T14:30:20.167Z,22
2018-12-26T14:31:21.143Z,22
2018-12-26T14:32:21.878Z,22
2018-12-26T14:33:22.581Z,22
2018-12-26T14:34:23.319Z,22
2018-12-26T14:35:24.134Z,16
2018-12-26T14:36:24.857Z,16
2018-12-26T14:37:25.568Z,16
2018-12-26T14:38:26.292Z,16
2018-12-26T14:39:27.009Z,16
2018-12-26T14:40:27.785Z,16
2018-12-26T14:41:28.505Z,16
2018-12-26T14:42:29.260Z,11
2018-12-26T14:43:29.972Z,11